Time;durP1;ratioP1;P1;durP2;ratioP2;P2;SDS_P1;SDS_P2;PMS_P1;PMS_P2;Temp;Humidity;BMP_temperature;BMP_pressure;BME280_temperature;BME280_humidity;BME280_pressure;Samples;Min_cycle;Max_cycle;Signal;HPM_P1;HPM_P2
2022/10/09 00:02:23;;;;;;;19.23;7.07;;;;;;;;;;5015376;28;20046;-71
2022/10/09 00:04:49;;;;;;;17.33;6.85;;;;;;;;;;5015318;28;20085;-70
2022/10/09 00:07:15;;;;;;;19.75;7.07;;;;;;;;;;5015240;28;20046;-70
2022/10/09 00:09:41;;;;;;;14.18;6.57;;;;;;;;;;5015222;28;20046;-70
2022/10/09 00:12:07;;;;;;;15.55;7.13;;;;;;;;;;5015168;28;20046;-70
2022/10/09 00:14:33;;;;;;;18.92;7.47;;;;;;;;;;4997679;28;20088;-70
2022/10/09 00:16:59;;;;;;;17.08;7.28;;;;;;;;;;5015076;28;20057;-70
2022/10/09 00:19:25;;;;;;;17.20;6.50;;;;;;;;;;5015079;28;20045;-70
2022/10/09 00:21:51;;;;;;;21.27;7.57;;;;;;;;;;5015327;28;20149;-70
2022/10/09 00:24:17;;;;;;;17.17;6.22;;;;;;;;;;5014996;28;20485;-71
2022/10/09 00:26:46;;;;;;;17.33;5.95;;;;;;;;;;5015563;28;20129;-70
2022/10/09 00:29:12;;;;;;;16.23;6.55;;;;;;;;;;5014883;28;20049;-71
2022/10/09 00:31:38;;;;;;;14.50;5.93;;;;;;;;;;5014011;28;20044;-71
2022/10/09 00:34:04;;;;;;;19.05;6.13;;;;;;;;;;5014842;28;20461;-71
2022/10/09 00:36:31;;;;;;;17.30;6.25;;;;;;;;;;5014784;28;20045;-71
2022/10/09 00:38:56;;;;;;;;;;;;;;;;;;5014958;28;20057;-71
2022/10/09 00:41:33;;;;;;;15.85;5.43;;;;;;;;;;5014514;28;19921;-70
2022/10/09 00:44:00;;;;;;;16.77;5.90;;;;;;;;;;5014846;28;20107;-71
2022/10/09 00:46:47;;;;;;;19.15;5.78;;;;;;;;;;5014556;28;20482;-70
2022/10/09 00:49:17;;;;;;;16.88;5.45;;;;;;;;;;5014776;28;20053;-69
2022/10/09 00:51:44;;;;;;;17.70;5.78;;;;;;;;;;5014667;28;20042;-69
2022/10/09 00:54:12;;;;;;;16.67;5.40;;;;;;;;;;5014399;28;20056;-70
2022/10/09 00:56:38;;;;;;;15.75;5.70;;;;;;;;;;5015049;28;20386;-70
2022/10/09 00:59:05;;;;;;;15.20;5.53;;;;;;;;;;5014170;28;20049;-69
2022/10/09 01:01:31;;;;;;;16.55;5.50;;;;;;;;;;4996859;28;20058;-70
2022/10/09 01:03:57;;;;;;;16.50;5.70;;;;;;;;;;5014102;28;20041;-70
2022/10/09 01:06:32;;;;;;;18.85;5.93;;;;;;;;;;5014252;28;20065;-69
2022/10/09 01:08:58;;;;;;;15.98;5.75;;;;;;;;;;5014413;28;20085;-71
2022/10/09 01:11:43;;;;;;;19.65;5.85;;;;;;;;;;5014481;28;20497;-71
2022/10/09 01:14:28;;;;;;;19.02;5.55;;;;;;;;;;5014995;28;20046;-71
2022/10/09 01:17:15;;;;;;;15.32;6.05;;;;;;;;;;5014372;28;20060;-70
2022/10/09 01:19:46;;;;;;;18.98;5.20;;;;;;;;;;5014451;28;20053;-69
2022/10/09 01:22:13;;;;;;;18.65;5.90;;;;;;;;;;5013931;28;20138;-72
2022/10/09 01:24:47;;;;;;;15.73;5.65;;;;;;;;;;4997533;28;20362;-70
2022/10/09 01:27:25;;;;;;;25.98;5.93;;;;;;;;;;5014931;28;20049;-70
2022/10/09 01:30:02;;;;;;;16.10;5.63;;;;;;;;;;5013913;28;20452;-71
2022/10/09 01:32:28;;;;;;;;;;;;;;;;;;5014941;28;20191;-70
2022/10/09 01:34:55;;;;;;;15.43;5.90;;;;;;;;;;5014395;28;19921;-70
2022/10/09 01:37:22;;;;;;;16.38;5.38;;;;;;;;;;4997244;28;20054;-70
2022/10/09 01:39:48;;;;;;;14.70;5.57;;;;;;;;;;5014072;28;20057;-70
2022/10/09 01:42:15;;;;;;;20.10;6.03;;;;;;;;;;4996411;28;20045;-71
2022/10/09 01:44:42;;;;;;;18.17;6.22;;;;;;;;;;5014078;28;20053;-72
2022/10/09 01:47:12;;;;;;;13.30;5.35;;;;;;;;;;5013935;28;20130;-71
2022/10/09 01:49:41;;;;;;;18.02;5.45;;;;;;;;;;4996462;28;20046;-72
2022/10/09 01:52:26;;;;;;;18.73;5.85;;;;;;;;;;5013753;28;20046;-71
2022/10/09 01:54:59;;;;;;;15.15;6.00;;;;;;;;;;5013836;28;20050;-71
2022/10/09 01:57:31;;;;;;;18.88;6.35;;;;;;;;;;5014586;28;20056;-71
2022/10/09 01:59:59;;;;;;;16.70;6.35;;;;;;;;;;5014143;28;20069;-70
2022/10/09 02:02:25;;;;;;;18.45;6.20;;;;;;;;;;5014251;28;20045;-72
2022/10/09 02:04:52;;;;;;;21.00;6.78;;;;;;;;;;5013471;28;20490;-70
2022/10/09 02:07:18;;;;;;;18.98;7.00;;;;;;;;;;4996302;28;20046;-72
2022/10/09 02:09:45;;;;;;;16.83;6.82;;;;;;;;;;4997023;28;20060;-71
2022/10/09 02:12:12;;;;;;;17.00;7.10;;;;;;;;;;5013601;28;20112;-71
2022/10/09 02:14:38;;;;;;;18.55;6.28;;;;;;;;;;5013681;28;20396;-71
2022/10/09 02:17:16;;;;;;;20.65;6.00;;;;;;;;;;5014349;28;20046;-71
2022/10/09 02:19:46;;;;;;;15.75;6.10;;;;;;;;;;5014521;28;20116;-71
2022/10/09 02:22:21;;;;;;;20.52;6.82;;;;;;;;;;5013834;28;20125;-71
2022/10/09 02:24:47;;;;;;;17.15;6.00;;;;;;;;;;5013613;28;20054;-71
2022/10/09 02:27:14;;;;;;;18.50;5.40;;;;;;;;;;5013454;28;20110;-71
2022/10/09 02:29:41;;;;;;;17.10;6.07;;;;;;;;;;5013834;28;20050;-71
2022/10/09 02:32:07;;;;;;;16.05;5.63;;;;;;;;;;5014159;28;20050;-71
2022/10/09 02:34:33;;;;;;;18.60;6.25;;;;;;;;;;5014066;28;20057;-72
2022/10/09 02:36:59;;;;;;;14.13;5.55;;;;;;;;;;5013282;28;20050;-70
2022/10/09 02:39:25;;;;;;;18.25;6.07;;;;;;;;;;5013503;28;20089;-71
2022/10/09 02:41:51;;;;;;;24.95;6.53;;;;;;;;;;4995911;28;20112;-71
2022/10/09 02:44:17;;;;;;;13.65;5.80;;;;;;;;;;5013445;28;20050;-71
2022/10/09 02:46:43;;;;;;;16.38;5.60;;;;;;;;;;4995930;28;20053;-71
2022/10/09 02:49:10;;;;;;;15.82;6.28;;;;;;;;;;5013760;28;20104;-71
2022/10/09 02:51:36;;;;;;;18.95;5.93;;;;;;;;;;5013842;28;20050;-72
2022/10/09 02:54:02;;;;;;;17.08;6.38;;;;;;;;;;5015182;28;20056;-72
2022/10/09 02:56:28;;;;;;;15.88;6.13;;;;;;;;;;5017684;28;20045;-72
2022/10/09 02:58:54;;;;;;;16.38;6.35;;;;;;;;;;5016964;28;20133;-72
2022/10/09 03:01:21;;;;;;;15.70;6.43;;;;;;;;;;5017022;28;20049;-72
2022/10/09 03:03:47;;;;;;;18.63;6.28;;;;;;;;;;5016894;28;20061;-72
2022/10/09 03:06:14;;;;;;;17.63;6.70;;;;;;;;;;5016899;28;20054;-71
2022/10/09 03:08:42;;;;;;;17.52;7.30;;;;;;;;;;5017310;28;20081;-70
2022/10/09 03:11:08;;;;;;;17.58;6.70;;;;;;;;;;5000045;28;20129;-71
2022/10/09 03:13:35;;;;;;;18.15;6.97;;;;;;;;;;5016713;28;20050;-71
2022/10/09 03:16:02;;;;;;;18.33;6.45;;;;;;;;;;4999397;28;20050;-70
2022/10/09 03:18:28;;;;;;;15.93;6.50;;;;;;;;;;5016644;28;20046;-71
2022/10/09 03:20:54;;;;;;;18.13;6.78;;;;;;;;;;4998854;28;20124;-71
2022/10/09 03:23:20;;;;;;;22.63;6.32;;;;;;;;;;5016580;28;20054;-71
2022/10/09 03:25:54;;;;;;;15.50;6.72;;;;;;;;;;5016597;28;20052;-71
2022/10/09 03:28:20;;;;;;;16.92;6.30;;;;;;;;;;5016423;28;20404;-71
2022/10/09 03:30:46;;;;;;;15.90;6.07;;;;;;;;;;5016390;28;20044;-71
2022/10/09 03:33:12;;;;;;;19.15;7.10;;;;;;;;;;5016937;28;20539;-71
2022/10/09 03:35:38;;;;;;;15.27;6.97;;;;;;;;;;5016420;28;20050;-71
2022/10/09 03:38:04;;;;;;;16.30;6.28;;;;;;;;;;4999790;28;20038;-71
2022/10/09 03:40:30;;;;;;;14.18;6.15;;;;;;;;;;5016203;28;20042;-71
2022/10/09 03:42:56;;;;;;;19.10;7.10;;;;;;;;;;5016308;28;20132;-72
2022/10/09 03:45:22;;;;;;;17.85;6.20;;;;;;;;;;5016198;28;20050;-71
2022/10/09 03:47:48;;;;;;;17.40;6.93;;;;;;;;;;5016203;28;20503;-71
2022/10/09 03:50:15;;;;;;;18.17;6.70;;;;;;;;;;5016408;28;20129;-71
2022/10/09 03:52:41;;;;;;;18.38;7.32;;;;;;;;;;5016117;28;20053;-72
2022/10/09 03:55:07;;;;;;;19.23;7.55;;;;;;;;;;5016163;28;20173;-71
2022/10/09 03:57:33;;;;;;;16.13;6.88;;;;;;;;;;5015999;28;20111;-73
2022/10/09 03:59:59;;;;;;;22.55;7.00;;;;;;;;;;5016382;28;20389;-73
2022/10/09 04:02:25;;;;;;;20.25;7.45;;;;;;;;;;5015895;28;20497;-71
2022/10/09 04:04:51;;;;;;;15.93;7.63;;;;;;;;;;5016316;28;20045;-72
2022/10/09 04:07:17;;;;;;;18.70;6.85;;;;;;;;;;5015712;28;20050;-71
2022/10/09 04:09:43;;;;;;;18.48;7.03;;;;;;;;;;4998966;28;20362;-72
2022/10/09 04:12:09;;;;;;;21.73;6.90;;;;;;;;;;5015619;28;20046;-72
2022/10/09 04:14:35;;;;;;;16.00;6.90;;;;;;;;;;5015604;28;20051;-71
2022/10/09 04:17:01;;;;;;;18.17;7.70;;;;;;;;;;5016185;28;20082;-73
2022/10/09 04:19:27;;;;;;;18.25;7.90;;;;;;;;;;5015532;28;20050;-72
2022/10/09 04:21:53;;;;;;;21.83;7.43;;;;;;;;;;5015526;28;20124;-72
2022/10/09 04:24:19;;;;;;;18.98;8.15;;;;;;;;;;5015453;28;20473;-72
2022/10/09 04:26:45;;;;;;;20.10;8.90;;;;;;;;;;5015604;28;20388;-71
2022/10/09 04:29:11;;;;;;;14.95;7.60;;;;;;;;;;5015604;28;20048;-72
2022/10/09 04:31:37;;;;;;;18.85;9.30;;;;;;;;;;5015115;28;20048;-72
2022/10/09 04:34:04;;;;;;;19.27;8.70;;;;;;;;;;5015312;28;20057;-73
2022/10/09 04:36:30;;;;;;;24.02;9.10;;;;;;;;;;4998107;28;20119;-71
2022/10/09 04:38:56;;;;;;;17.38;8.43;;;;;;;;;;5015235;28;20103;-72
2022/10/09 04:41:22;;;;;;;26.00;9.75;;;;;;;;;;5014983;28;20053;-71
2022/10/09 04:43:48;;;;;;;21.88;9.50;;;;;;;;;;5015102;28;20053;-72
2022/10/09 04:46:14;;;;;;;20.25;8.65;;;;;;;;;;5014990;28;20410;-72
2022/10/09 04:48:40;;;;;;;;;;;;;;;;;;5015434;28;20046;-72
2022/10/09 04:51:07;;;;;;;19.38;8.70;;;;;;;;;;5014846;28;19926;-72
2022/10/09 04:53:34;;;;;;;18.05;9.38;;;;;;;;;;5015628;28;20042;-72
2022/10/09 04:56:02;;;;;;;24.30;9.77;;;;;;;;;;5015113;28;20045;-72
2022/10/09 04:58:28;;;;;;;23.17;10.38;;;;;;;;;;5014455;28;20479;-72
2022/10/09 05:00:55;;;;;;;20.65;9.98;;;;;;;;;;5014824;28;20194;-71
2022/10/09 05:03:21;;;;;;;25.10;10.48;;;;;;;;;;4997215;28;20418;-71
2022/10/09 05:05:47;;;;;;;23.00;10.60;;;;;;;;;;5014768;28;20050;-72
2022/10/09 05:08:13;;;;;;;22.65;10.48;;;;;;;;;;4997014;28;20045;-71
2022/10/09 05:10:39;;;;;;;21.88;10.63;;;;;;;;;;4997276;28;20446;-72
2022/10/09 05:13:06;;;;;;;23.40;9.95;;;;;;;;;;5015288;28;20081;-71
2022/10/09 05:15:35;;;;;;;27.08;10.38;;;;;;;;;;4997977;28;20363;-72
2022/10/09 05:18:01;;;;;;;21.25;11.13;;;;;;;;;;5014041;28;20046;-72
2022/10/09 05:20:27;;;;;;;22.33;9.73;;;;;;;;;;5015189;28;20046;-71
2022/10/09 05:22:53;;;;;;;20.70;10.57;;;;;;;;;;5014330;28;20053;-73
2022/10/09 05:25:19;;;;;;;23.02;10.85;;;;;;;;;;5014245;28;20180;-72
2022/10/09 05:27:45;;;;;;;21.20;10.70;;;;;;;;;;5014285;28;20050;-73
2022/10/09 05:30:12;;;;;;;23.15;11.38;;;;;;;;;;5014246;28;20473;-73
2022/10/09 05:32:38;;;;;;;23.45;11.48;;;;;;;;;;5015080;28;20057;-75
2022/10/09 05:35:04;;;;;;;23.00;11.93;;;;;;;;;;5013781;28;20125;-73
2022/10/09 05:37:30;;;;;;;24.75;11.85;;;;;;;;;;5013540;28;20046;-73
2022/10/09 05:39:56;;;;;;;28.90;12.13;;;;;;;;;;5014073;28;20194;-72
2022/10/09 05:42:22;;;;;;;23.45;11.98;;;;;;;;;;5013837;28;20045;-73
2022/10/09 05:44:48;;;;;;;20.67;11.48;;;;;;;;;;5013702;28;20149;-71
2022/10/09 05:47:16;;;;;;;21.58;11.45;;;;;;;;;;5012646;28;20049;-73
2022/10/09 05:49:42;;;;;;;21.23;11.73;;;;;;;;;;4995045;28;20046;-72
2022/10/09 05:52:08;;;;;;;22.80;11.43;;;;;;;;;;5013586;28;20041;-73
2022/10/09 05:54:35;;;;;;;22.80;11.30;;;;;;;;;;5013649;28;20095;-72
2022/10/09 05:57:01;;;;;;;23.15;12.32;;;;;;;;;;5013337;28;20485;-72
2022/10/09 05:59:27;;;;;;;26.20;13.18;;;;;;;;;;5013434;28;20056;-73
2022/10/09 06:01:53;;;;;;;24.67;12.68;;;;;;;;;;5014409;28;20049;-73
2022/10/09 06:04:23;;;;;;;21.90;11.57;;;;;;;;;;5013604;28;20499;-73
2022/10/09 06:06:49;;;;;;;25.95;12.60;;;;;;;;;;5014013;28;20064;-73
2022/10/09 06:09:17;;;;;;;25.08;11.98;;;;;;;;;;5013616;28;20053;-72
2022/10/09 06:11:43;;;;;;;25.10;11.60;;;;;;;;;;5013399;28;20492;-73
2022/10/09 06:14:10;;;;;;;22.13;12.02;;;;;;;;;;4996092;28;20543;-73
2022/10/09 06:16:38;;;;;;;22.35;12.02;;;;;;;;;;5013282;28;20050;-72
2022/10/09 06:19:04;;;;;;;22.90;12.55;;;;;;;;;;5013523;28;20046;-71
2022/10/09 06:21:31;;;;;;;23.83;12.15;;;;;;;;;;5013652;28;20062;-71
2022/10/09 06:23:57;;;;;;;;;;;;;;;;;;5013510;28;20139;-72
2022/10/09 06:26:24;;;;;;;21.35;11.48;;;;;;;;;;4996974;28;20354;-72
2022/10/09 06:28:50;;;;;;;24.55;11.60;;;;;;;;;;5014485;28;20089;-71
2022/10/09 06:31:16;;;;;;;;;;;;;;;;;;5000803;28;20050;-72
2022/10/09 06:33:43;;;;;;;23.98;11.27;;;;;;;;;;5017843;28;19934;-72
2022/10/09 06:36:13;;;;;;;25.60;10.85;;;;;;;;;;5017770;28;20085;-72
2022/10/09 06:38:40;;;;;;;19.88;10.80;;;;;;;;;;5017334;28;20056;-72
2022/10/09 06:41:14;;;;;;;19.77;10.52;;;;;;;;;;5017806;28;20034;-72
2022/10/09 06:43:40;;;;;;;17.63;9.75;;;;;;;;;;5017500;28;20046;-72
2022/10/09 06:46:10;;;;;;;18.75;9.82;;;;;;;;;;5016998;28;20049;-73
2022/10/09 06:48:37;;;;;;;22.42;10.82;;;;;;;;;;5016848;28;20552;-71
2022/10/09 06:51:07;;;;;;;20.38;10.48;;;;;;;;;;5017502;28;20075;-72
2022/10/09 06:53:34;;;;;;;21.67;11.15;;;;;;;;;;4999719;28;20504;-72
2022/10/09 06:56:01;;;;;;;22.55;9.82;;;;;;;;;;5017834;28;20490;-73
2022/10/09 06:58:27;;;;;;;20.90;9.95;;;;;;;;;;5016986;28;20089;-73
2022/10/09 07:01:02;;;;;;;20.15;9.68;;;;;;;;;;5017503;28;20046;-73
2022/10/09 07:03:28;;;;;;;21.10;9.85;;;;;;;;;;4999542;28;20183;-70
2022/10/09 07:06:04;;;;;;;20.42;10.45;;;;;;;;;;5016849;28;20085;-72
2022/10/09 07:08:31;;;;;;;18.85;9.32;;;;;;;;;;5017221;28;20071;-73
2022/10/09 07:10:57;;;;;;;23.00;10.90;;;;;;;;;;4999035;28;20052;-72
2022/10/09 07:13:23;;;;;;;23.77;10.73;;;;;;;;;;5016668;28;20057;-72
2022/10/09 07:15:49;;;;;;;21.63;11.10;;;;;;;;;;5016327;28;20046;-73
2022/10/09 07:18:15;;;;;;;32.22;12.77;;;;;;;;;;5016463;28;20046;-72
2022/10/09 07:20:41;;;;;;;25.42;11.57;;;;;;;;;;5016185;28;20129;-75
2022/10/09 07:23:07;;;;;;;26.17;12.48;;;;;;;;;;5015153;28;20049;-74
2022/10/09 07:25:37;;;;;;;29.73;12.55;;;;;;;;;;5014761;28;20115;-72
2022/10/09 07:28:03;;;;;;;25.70;13.52;;;;;;;;;;4997173;28;20133;-72
2022/10/09 07:30:29;;;;;;;23.05;12.52;;;;;;;;;;5015302;28;20062;-72
2022/10/09 07:32:55;;;;;;;22.30;12.63;;;;;;;;;;5014986;28;20046;-73
2022/10/09 07:35:21;;;;;;;24.77;14.38;;;;;;;;;;4997135;28;20470;-72
2022/10/09 07:37:47;;;;;;;27.33;13.98;;;;;;;;;;5014086;28;20129;-72
2022/10/09 07:40:13;;;;;;;25.67;13.18;;;;;;;;;;5014108;28;20046;-73
2022/10/09 07:42:39;;;;;;;25.83;14.07;;;;;;;;;;5014794;28;20045;-75
2022/10/09 07:45:06;;;;;;;28.08;14.73;;;;;;;;;;4997148;28;20149;-74
2022/10/09 07:47:32;;;;;;;30.10;14.93;;;;;;;;;;5013815;28;20050;-73
2022/10/09 07:49:58;;;;;;;29.52;14.13;;;;;;;;;;5013964;28;20049;-72
2022/10/09 07:52:24;;;;;;;23.33;13.57;;;;;;;;;;4980653;28;20046;-72
2022/10/09 07:54:50;;;;;;;22.95;12.10;;;;;;;;;;5013601;28;20129;-73
2022/10/09 07:57:16;;;;;;;24.73;12.15;;;;;;;;;;5013644;28;20042;-72
2022/10/09 07:59:42;;;;;;;25.92;12.00;;;;;;;;;;5013864;28;20049;-74
2022/10/09 08:02:08;;;;;;;23.90;11.70;;;;;;;;;;4996658;28;20054;-74
2022/10/09 08:04:34;;;;;;;;;;;;;;;;;;4996847;28;20046;-74
2022/10/09 08:07:00;;;;;;;22.55;10.18;;;;;;;;;;4996279;28;19922;-74
2022/10/09 08:09:26;;;;;;;21.23;10.23;;;;;;;;;;5014439;28;20045;-74
2022/10/09 08:11:52;;;;;;;19.42;9.57;;;;;;;;;;5013778;28;20128;-75
2022/10/09 08:14:18;;;;;;;18.42;8.95;;;;;;;;;;5014489;28;20045;-74
2022/10/09 08:16:44;;;;;;;21.80;9.15;;;;;;;;;;5014281;28;20116;-74
2022/10/09 08:19:10;;;;;;;18.27;8.35;;;;;;;;;;5013429;28;20077;-75
2022/10/09 08:21:36;;;;;;;19.27;9.00;;;;;;;;;;4958354;28;1099936;-72
2022/10/09 08:24:03;;;;;;;21.02;8.80;;;;;;;;;;5014988;28;20133;-75
2022/10/09 08:26:30;;;;;;;15.80;8.45;;;;;;;;;;4980941;28;20576;-74
2022/10/09 08:28:59;;;;;;;21.52;8.68;;;;;;;;;;5014215;28;20042;-74
2022/10/09 08:31:26;;;;;;;17.55;8.88;;;;;;;;;;5014277;28;20050;-75
2022/10/09 08:33:56;;;;;;;17.20;7.78;;;;;;;;;;5014584;28;20052;-78
2022/10/09 08:36:22;;;;;;;18.38;7.80;;;;;;;;;;5014130;28;20133;-76
2022/10/09 08:38:49;;;;;;;18.63;8.25;;;;;;;;;;5014499;28;20057;-82
2022/10/09 08:41:27;;;;;;;20.48;7.63;;;;;;;;;;5014842;28;20058;-77
2022/10/09 08:43:57;;;;;;;17.35;7.50;;;;;;;;;;5014897;28;20429;-78
2022/10/09 08:46:26;;;;;;;18.75;7.43;;;;;;;;;;5013840;28;20517;-75
2022/10/09 08:48:53;;;;;;;18.75;7.57;;;;;;;;;;5014304;28;20053;-78
2022/10/09 08:51:27;;;;;;;17.48;7.20;;;;;;;;;;5013077;28;20084;-78
2022/10/09 08:53:53;;;;;;;22.05;6.93;;;;;;;;;;4996484;28;20060;-79
2022/10/09 08:56:19;;;;;;;21.63;7.22;;;;;;;;;;4996556;28;20476;-78
2022/10/09 08:58:45;;;;;;;16.30;6.93;;;;;;;;;;5013855;28;20401;-78
2022/10/09 09:01:15;;;;;;;15.85;6.70;;;;;;;;;;5014157;28;20046;-77
2022/10/09 09:03:50;;;;;;;19.95;7.78;;;;;;;;;;4996802;28;20421;-78
2022/10/09 09:06:28;;;;;;;17.80;7.35;;;;;;;;;;4997056;28;20049;-80
2022/10/09 09:08:57;;;;;;;18.30;7.03;;;;;;;;;;4997461;28;20136;-79
2022/10/09 09:11:23;;;;;;;17.92;6.32;;;;;;;;;;5014588;28;20046;-82
2022/10/09 09:13:52;;;;;;;16.30;6.47;;;;;;;;;;4997453;28;20065;-82
2022/10/09 09:16:25;;;;;;;17.17;6.88;;;;;;;;;;5014111;28;20129;-78
2022/10/09 09:19:11;;;;;;;19.52;6.57;;;;;;;;;;4997062;28;20095;-82
2022/10/09 09:21:41;;;;;;;18.77;6.57;;;;;;;;;;5016897;28;20144;-83
2022/10/09 09:24:20;;;;;;;18.85;6.32;;;;;;;;;;5012552;28;20200;-79
2022/10/09 09:26:55;;;;;;;13.20;5.75;;;;;;;;;;4996539;28;20045;-76
2022/10/09 09:29:24;;;;;;;16.70;6.30;;;;;;;;;;5014333;28;20045;-75
2022/10/09 09:31:56;;;;;;;14.35;5.32;;;;;;;;;;4996233;28;20045;-81
2022/10/09 09:34:22;;;;;;;17.98;5.78;;;;;;;;;;4997214;28;20400;-76
2022/10/09 09:36:50;;;;;;;18.92;5.30;;;;;;;;;;4980853;28;20493;-79
2022/10/09 09:39:16;;;;;;;17.48;5.20;;;;;;;;;;5014675;28;20094;-78
2022/10/09 09:41:43;;;;;;;13.60;4.90;;;;;;;;;;4997320;28;20100;-83
2022/10/09 09:44:10;;;;;;;16.23;4.93;;;;;;;;;;5014002;28;20109;-86
2022/10/09 09:46:37;;;;;;;14.35;4.35;;;;;;;;;;5013703;28;20128;-85
2022/10/09 09:49:03;;;;;;;;;;;;;;;;;;5013815;28;20050;-88
2022/10/09 09:51:30;;;;;;;13.93;4.43;;;;;;;;;;4996555;28;20365;-76
2022/10/09 09:53:58;;;;;;;14.35;4.15;;;;;;;;;;4997099;28;20123;-75
2022/10/09 09:56:36;;;;;;;18.30;4.30;;;;;;;;;;4995558;28;20133;-82
2022/10/09 09:59:03;;;;;;;13.10;4.53;;;;;;;;;;5013671;28;20076;-80
2022/10/09 10:01:30;;;;;;;15.75;4.43;;;;;;;;;;4997325;28;20049;-81
2022/10/09 10:03:58;;;;;;;16.17;4.43;;;;;;;;;;4997137;28;20085;-80
2022/10/09 10:06:54;;;;;;;13.35;3.88;;;;;;;;;;5024497;28;20076;-77
2022/10/09 10:09:20;;;;;;;15.32;4.10;;;;;;;;;;4983500;28;20120;-78
2022/10/09 10:11:46;;;;;;;;;;;;;;;;;;5003142;28;20129;-76
2022/10/09 10:14:13;;;;;;;16.15;4.90;;;;;;;;;;5025602;28;19921;-83
2022/10/09 10:16:40;;;;;;;15.65;4.38;;;;;;;;;;5008347;28;20097;-80
2022/10/09 10:19:06;;;;;;;12.40;4.00;;;;;;;;;;5020534;28;20086;-77
2022/10/09 10:21:40;;;;;;;14.05;4.32;;;;;;;;;;5010513;28;20062;-83
2022/10/09 10:24:10;;;;;;;16.67;5.32;;;;;;;;;;5020482;28;20034;-74
2022/10/09 10:26:36;;;;;;;13.85;4.38;;;;;;;;;;5017127;28;20069;-72
2022/10/09 10:29:05;;;;;;;16.75;4.72;;;;;;;;;;5021540;28;20050;-84
2022/10/09 10:31:31;;;;;;;12.18;4.13;;;;;;;;;;5021331;28;20054;-84
2022/10/09 10:33:57;;;;;;;18.50;4.90;;;;;;;;;;4999407;28;20149;-86
2022/10/09 10:36:25;;;;;;;14.85;4.75;;;;;;;;;;4985314;28;20104;-76
2022/10/09 10:39:08;;;;;;;17.15;4.22;;;;;;;;;;5003224;28;20049;-86
2022/10/09 10:41:41;;;;;;;14.98;4.82;;;;;;;;;;4997077;28;20076;-85
2022/10/09 10:44:09;;;;;;;16.95;5.53;;;;;;;;;;4996731;28;20100;-76
2022/10/09 10:46:40;;;;;;;16.00;4.60;;;;;;;;;;4997295;28;20139;-75
2022/10/09 10:49:08;;;;;;;16.67;4.35;;;;;;;;;;5002434;28;20057;-88
2022/10/09 10:51:41;;;;;;;15.40;4.57;;;;;;;;;;4999580;28;20052;-87
2022/10/09 10:54:10;;;;;;;15.82;4.07;;;;;;;;;;4998273;28;20063;-88
2022/10/09 10:56:48;;;;;;;19.40;4.25;;;;;;;;;;4995971;28;20497;-88
2022/10/09 10:59:33;;;;;;;13.40;4.00;;;;;;;;;;4997402;28;20042;-88
2022/10/09 11:02:10;;;;;;;14.90;4.50;;;;;;;;;;5012434;28;20148;-81
2022/10/09 11:04:36;;;;;;;14.85;4.20;;;;;;;;;;4994637;28;20153;-80
2022/10/09 11:07:02;;;;;;;14.38;3.90;;;;;;;;;;5011884;28;20126;-78
2022/10/09 11:09:48;;;;;;;11.95;4.00;;;;;;;;;;5012234;28;20494;-80
2022/10/09 11:12:23;;;;;;;14.40;3.67;;;;;;;;;;4994010;28;20124;-80
2022/10/09 11:15:00;;;;;;;14.82;3.85;;;;;;;;;;4996265;28;20046;-84
2022/10/09 11:17:32;;;;;;;15.95;4.20;;;;;;;;;;5016487;28;20053;-86
2022/10/09 11:19:58;;;;;;;10.52;3.47;;;;;;;;;;5016171;28;20054;-76
2022/10/09 11:22:27;;;;;;;12.88;4.10;;;;;;;;;;4998176;28;20141;-80
2022/10/09 11:25:03;;;;;;;14.27;3.42;;;;;;;;;;5015833;28;20128;-77
2022/10/09 11:27:41;;;;;;;15.38;3.53;;;;;;;;;;4997821;28;20485;-71
2022/10/09 11:30:12;;;;;;;16.52;4.07;;;;;;;;;;5015427;28;20054;-69
2022/10/09 11:32:41;;;;;;;14.85;3.88;;;;;;;;;;5015653;28;20103;-66
2022/10/09 11:35:23;;;;;;;13.15;3.72;;;;;;;;;;5015411;28;20057;-81
2022/10/09 11:37:58;;;;;;;15.10;3.83;;;;;;;;;;5014890;28;20460;-75
2022/10/09 11:40:26;;;;;;;16.60;3.97;;;;;;;;;;5016075;28;20185;-76
2022/10/09 11:43:04;;;;;;;13.00;3.55;;;;;;;;;;5016169;28;20100;-72
2022/10/09 11:45:46;;;;;;;15.27;4.03;;;;;;;;;;4998151;28;20049;-76
2022/10/09 11:48:21;;;;;;;16.17;4.05;;;;;;;;;;5015492;28;20104;-74
2022/10/09 11:51:00;;;;;;;13.40;3.40;;;;;;;;;;5015364;28;20092;-79
2022/10/09 11:53:28;;;;;;;14.88;3.35;;;;;;;;;;4998589;28;20109;-72
2022/10/09 11:56:04;;;;;;;11.30;3.15;;;;;;;;;;5015644;28;20057;-69
2022/10/09 11:58:31;;;;;;;14.30;3.08;;;;;;;;;;5015593;28;20068;-68
2022/10/09 12:01:09;;;;;;;13.60;3.08;;;;;;;;;;4998221;28;20488;-68
2022/10/09 12:03:36;;;;;;;14.02;3.00;;;;;;;;;;4998606;28;20133;-67
2022/10/09 12:06:10;;;;;;;12.43;2.80;;;;;;;;;;5015587;28;20061;-71
2022/10/09 12:08:37;;;;;;;10.73;2.95;;;;;;;;;;5015551;28;20046;-72
2022/10/09 12:11:08;;;;;;;13.02;2.90;;;;;;;;;;4997747;28;20050;-69
2022/10/09 12:13:38;;;;;;;12.48;3.00;;;;;;;;;;5015524;28;20054;-70
2022/10/09 12:16:05;;;;;;;11.25;3.17;;;;;;;;;;5015522;28;20077;-72
2022/10/09 12:18:34;;;;;;;14.27;3.40;;;;;;;;;;5015005;28;20540;-76
2022/10/09 12:21:02;;;;;;;12.25;3.13;;;;;;;;;;5014827;28;20501;-74
2022/10/09 12:23:31;;;;;;;14.45;3.05;;;;;;;;;;5015316;28;20052;-72
2022/10/09 12:25:58;;;;;;;15.48;2.88;;;;;;;;;;4996975;28;20049;-70
2022/10/09 12:28:27;;;;;;;12.88;2.92;;;;;;;;;;5014881;28;20482;-72
2022/10/09 12:30:54;;;;;;;14.70;2.97;;;;;;;;;;5015383;28;20054;-70
2022/10/09 12:33:23;;;;;;;12.93;3.10;;;;;;;;;;5014944;28;20068;-74
2022/10/09 12:36:00;;;;;;;12.00;2.80;;;;;;;;;;5015054;28;20088;-71
2022/10/09 12:38:27;;;;;;;11.02;3.10;;;;;;;;;;4998011;28;20069;-72
2022/10/09 12:40:55;;;;;;;11.68;2.85;;;;;;;;;;5015174;28;20045;-72
2022/10/09 12:43:22;;;;;;;11.10;3.00;;;;;;;;;;5014897;28;20592;-72
2022/10/09 12:45:49;;;;;;;12.32;3.20;;;;;;;;;;4997973;28;20088;-71
2022/10/09 12:48:24;;;;;;;15.00;4.00;;;;;;;;;;5014826;28;20456;-71
2022/10/09 12:50:51;;;;;;;12.30;3.67;;;;;;;;;;5015769;28;20046;-71
2022/10/09 12:53:21;;;;;;;14.93;3.45;;;;;;;;;;5014805;28;20506;-68
2022/10/09 12:55:59;;;;;;;11.05;3.00;;;;;;;;;;5014802;28;20053;-68
2022/10/09 12:58:28;;;;;;;12.63;3.25;;;;;;;;;;5015032;28;20555;-68
2022/10/09 13:00:59;;;;;;;13.52;3.95;;;;;;;;;;5014729;28;20049;-70
2022/10/09 13:03:41;;;;;;;14.50;3.88;;;;;;;;;;5014478;28;20050;-70
2022/10/09 13:06:13;;;;;;;12.73;3.78;;;;;;;;;;5014441;28;20111;-70
2022/10/09 13:08:40;;;;;;;15.75;3.58;;;;;;;;;;5015095;28;20058;-69
2022/10/09 13:11:21;;;;;;;13.48;3.30;;;;;;;;;;5014518;28;20417;-68
2022/10/09 13:13:50;;;;;;;14.93;4.43;;;;;;;;;;5014429;28;20061;-77
2022/10/09 13:16:17;;;;;;;13.05;4.03;;;;;;;;;;5015112;28;20137;-71
2022/10/09 13:18:43;;;;;;;11.98;3.78;;;;;;;;;;5014335;28;20390;-68
2022/10/09 13:21:16;;;;;;;12.15;3.20;;;;;;;;;;5013873;28;20057;-67
2022/10/09 13:23:42;;;;;;;15.93;4.70;;;;;;;;;;5015159;28;20132;-74
2022/10/09 13:26:16;;;;;;;13.35;3.55;;;;;;;;;;5014607;28;20046;-70
2022/10/09 13:28:42;;;;;;;13.80;4.03;;;;;;;;;;5014046;28;20041;-69
2022/10/09 13:31:08;;;;;;;13.00;3.90;;;;;;;;;;4996875;28;20076;-70
2022/10/09 13:33:34;;;;;;;13.52;4.32;;;;;;;;;;4980764;28;20050;-68
2022/10/09 13:36:00;;;;;;;13.88;3.97;;;;;;;;;;5014879;28;20046;-71
2022/10/09 13:38:26;;;;;;;12.07;3.80;;;;;;;;;;5013621;28;20054;-67
2022/10/09 13:40:53;;;;;;;12.60;4.18;;;;;;;;;;5014017;28;20421;-68
2022/10/09 13:43:25;;;;;;;12.70;3.90;;;;;;;;;;5014107;28;20462;-67
2022/10/09 13:45:51;;;;;;;11.85;4.20;;;;;;;;;;5013772;28;20089;-68
2022/10/09 13:48:17;;;;;;;16.80;4.78;;;;;;;;;;5013593;28;20054;-71
2022/10/09 13:50:44;;;;;;;15.05;4.63;;;;;;;;;;5013278;28;20559;-71
2022/10/09 13:53:10;;;;;;;17.58;4.75;;;;;;;;;;4996389;28;20045;-69
2022/10/09 13:55:36;;;;;;;16.42;4.28;;;;;;;;;;4996053;28;20056;-69
2022/10/09 13:58:02;;;;;;;12.88;4.47;;;;;;;;;;4997053;28;20081;-74
2022/10/09 14:00:28;;;;;;;11.98;4.68;;;;;;;;;;4996046;28;20084;-70
2022/10/09 14:02:55;;;;;;;17.25;4.68;;;;;;;;;;5013312;28;20049;-72
2022/10/09 14:05:21;;;;;;;12.95;4.78;;;;;;;;;;4996281;28;20163;-71
2022/10/09 14:07:47;;;;;;;14.48;4.45;;;;;;;;;;5014216;28;20167;-72
2022/10/09 14:10:13;;;;;;;;;;;;;;;;;;5013857;28;20188;-75
2022/10/09 14:12:39;;;;;;;17.08;5.70;;;;;;;;;;5013804;28;20008;-73
2022/10/09 14:15:06;;;;;;;14.93;4.85;;;;;;;;;;4996949;28;20041;-74
2022/10/09 14:17:32;;;;;;;15.98;5.10;;;;;;;;;;5013480;28;20076;-72
2022/10/09 14:19:58;;;;;;;15.02;4.95;;;;;;;;;;5013813;28;20050;-73
2022/10/09 14:22:24;;;;;;;14.98;5.10;;;;;;;;;;4995846;28;20092;-70
2022/10/09 14:24:50;;;;;;;14.35;4.55;;;;;;;;;;4996033;28;20046;-71
2022/10/09 14:27:16;;;;;;;13.43;5.10;;;;;;;;;;5013474;28;20038;-68
2022/10/09 14:29:42;;;;;;;16.77;5.68;;;;;;;;;;5014003;28;20132;-70
2022/10/09 14:32:08;;;;;;;12.75;4.70;;;;;;;;;;4995925;28;20037;-71
2022/10/09 14:34:34;;;;;;;14.73;5.05;;;;;;;;;;5013889;28;20056;-70
2022/10/09 14:37:00;;;;;;;12.02;4.50;;;;;;;;;;5013669;28;20149;-69
2022/10/09 14:39:26;;;;;;;15.07;4.30;;;;;;;;;;5013329;28;20050;-70